Time;durP1;ratioP1;P1;durP2;ratioP2;P2;SDS_P1;SDS_P2;PMS_P1;PMS_P2;Temp;Humidity;BMP_temperature;BMP_pressure;BME280_temperature;BME280_humidity;BME280_pressure;Samples;Min_cycle;Max_cycle;Signal;HPM_P1;HPM_P2
2022/05/06 00:01:51;;;;;;;27.17;16.23;;;11.10;99.90;;;;;;5109507;28;20499;-59
2022/05/06 00:04:16;;;;;;;23.40;16.00;;;11.10;99.90;;;;;;5109286;28;20469;-58
2022/05/06 00:06:42;;;;;;;22.77;15.47;;;11.10;99.90;;;;;;5098785;28;20942;-59
2022/05/06 00:09:09;;;;;;;23.00;15.90;;;11.00;99.90;;;;;;5106928;28;20267;-59
2022/05/06 00:11:35;;;;;;;22.57;17.00;;;11.00;99.90;;;;;;5109665;28;20193;-58
2022/05/06 00:14:00;;;;;;;23.20;15.60;;;11.00;99.90;;;;;;5078579;28;20435;-59
2022/05/06 00:16:27;;;;;;;24.07;16.00;;;11.00;99.90;;;;;;5090125;28;20472;-59
2022/05/06 00:18:54;;;;;;;20.77;14.23;;;11.00;99.90;;;;;;5109702;28;20828;-59
2022/05/06 00:21:20;;;;;;;23.43;14.93;;;11.00;99.90;;;;;;5090898;28;20430;-59
2022/05/06 00:23:46;;;;;;;24.50;16.00;;;11.00;99.90;;;;;;5093918;28;20427;-59
2022/05/06 00:26:12;;;;;;;26.00;16.43;;;11.00;99.90;;;;;;5106266;28;20992;-59
2022/05/06 00:28:39;;;;;;;24.00;17.47;;;11.00;99.90;;;;;;5094178;28;20239;-59
2022/05/06 00:31:06;;;;;;;21.53;15.63;;;11.00;99.90;;;;;;5091524;28;20193;-59
2022/05/06 00:33:32;;;;;;;21.13;14.70;;;11.00;99.90;;;;;;5107651;28;20510;-59
2022/05/06 00:35:59;;;;;;;21.77;15.47;;;11.00;99.90;;;;;;5077255;28;20522;-59
2022/05/06 00:38:26;;;;;;;23.07;16.10;;;11.00;99.90;;;;;;5108303;28;20419;-58
2022/05/06 00:40:52;;;;;;;26.60;16.47;;;11.00;99.90;;;;;;5109697;28;20444;-58
2022/05/06 00:43:19;;;;;;;22.50;15.97;;;10.90;99.90;;;;;;5103081;28;20446;-59
2022/05/06 00:45:52;;;;;;;25.87;17.33;;;10.90;99.90;;;;;;5108110;28;20450;-59
2022/05/06 00:48:19;;;;;;;26.87;16.90;;;10.90;99.90;;;;;;5107269;28;20456;-59
2022/05/06 00:50:45;;;;;;;25.37;17.30;;;10.90;99.90;;;;;;5108578;28;20902;-59
2022/05/06 00:53:12;;;;;;;28.13;16.77;;;10.90;99.90;;;;;;5107205;28;20482;-58
2022/05/06 00:55:38;;;;;;;28.90;16.87;;;10.90;99.90;;;;;;5109082;28;20403;-59
2022/05/06 00:58:04;;;;;;;27.70;16.80;;;10.90;99.90;;;;;;5100085;28;20504;-59
2022/05/06 01:00:30;;;;;;;27.27;16.40;;;10.90;99.90;;;;;;5103337;28;20181;-59
2022/05/06 01:02:55;;;;;;;27.10;17.87;;;10.90;99.90;;;;;;5101364;28;20511;-59
2022/05/06 01:05:24;;;;;;;27.30;17.77;;;10.90;99.90;;;;;;5100236;28;20211;-59
2022/05/06 01:07:51;;;;;;;27.47;17.40;;;10.90;99.90;;;;;;5109327;28;20226;-58
2022/05/06 01:10:18;;;;;;;27.33;18.30;;;11.00;99.90;;;;;;5092002;28;20432;-59
2022/05/06 01:12:44;;;;;;;32.73;18.40;;;10.90;99.90;;;;;;5100285;28;20537;-59
2022/05/06 01:15:27;;;;;;;28.93;18.33;;;10.90;99.90;;;;;;5092353;28;20515;-58
2022/05/06 01:17:55;;;;;;;28.90;19.03;;;10.90;99.90;;;;;;5092959;28;20411;-59
2022/05/06 01:20:22;;;;;;;32.33;19.97;;;10.90;99.90;;;;;;5092572;28;20473;-59
2022/05/06 01:22:58;;;;;;;29.90;18.97;;;10.90;99.90;;;;;;5103899;28;20971;-58
2022/05/06 01:25:25;;;;;;;30.13;19.93;;;10.90;99.90;;;;;;5092017;28;20463;-59
2022/05/06 01:28:04;;;;;;;27.80;18.60;;;10.90;99.90;;;;;;5092780;28;20985;-59
2022/05/06 01:30:38;;;;;;;32.57;19.47;;;10.90;99.90;;;;;;5099260;28;20427;-59
2022/05/06 01:33:06;;;;;;;31.57;20.00;;;10.80;99.90;;;;;;5108196;28;20507;-59
2022/05/06 01:35:36;;;;;;;34.57;20.50;;;10.80;99.90;;;;;;5111856;28;20414;-59
2022/05/06 01:38:05;;;;;;;32.23;20.00;;;10.80;99.90;;;;;;5094988;28;20437;-59
2022/05/06 01:40:39;;;;;;;37.23;20.93;;;10.80;99.90;;;;;;5108841;28;20926;-59
2022/05/06 01:43:09;;;;;;;35.27;21.07;;;10.80;99.90;;;;;;5106333;28;20482;-58
2022/05/06 01:45:37;;;;;;;33.03;21.00;;;10.80;99.90;;;;;;5106994;28;20491;-59
2022/05/06 01:48:03;;;;;;;29.53;20.37;;;10.80;99.90;;;;;;5112440;28;20399;-59
2022/05/06 01:50:32;;;;;;;31.87;20.97;;;10.80;99.90;;;;;;5111206;28;20431;-59
2022/05/06 01:52:59;;;;;;;33.50;21.37;;;10.80;99.90;;;;;;5111878;28;20455;-59
2022/05/06 01:55:24;;;;;;;32.90;21.53;;;10.80;99.90;;;;;;5105916;28;20462;-59
2022/05/06 01:57:50;;;;;;;35.50;22.90;;;10.80;99.90;;;;;;5110439;28;20523;-59
2022/05/06 02:00:16;;;;;;;36.57;22.40;;;10.80;99.90;;;;;;5111575;28;20181;-59
2022/05/06 02:02:41;;;;;;;36.97;23.07;;;10.80;99.90;;;;;;5110062;28;20247;-58
2022/05/06 02:05:19;;;;;;;39.40;24.20;;;10.80;99.90;;;;;;5097327;28;20461;-59
2022/05/06 02:07:46;;;;;;;35.63;21.23;;;10.80;99.90;;;;;;5104560;28;20173;-58
2022/05/06 02:10:12;;;;;;;38.43;24.60;;;10.80;99.90;;;;;;5098588;28;20435;-59
2022/05/06 02:12:38;;;;;;;35.53;22.10;;;10.80;99.90;;;;;;5101592;28;20662;-59
2022/05/06 02:15:04;;;;;;;39.20;24.20;;;10.70;99.90;;;;;;5096791;28;20173;-59
2022/05/06 02:17:29;;;;;;;35.13;23.20;;;10.70;99.90;;;;;;5108634;28;20434;-58
2022/05/06 02:19:55;;;;;;;40.77;24.70;;;10.70;99.90;;;;;;5091899;28;20427;-60
2022/05/06 02:22:21;;;;;;;35.33;22.67;;;10.70;99.90;;;;;;5075552;28;20284;-59
2022/05/06 02:24:47;;;;;;;38.43;23.00;;;10.70;99.90;;;;;;5106234;28;20600;-58
2022/05/06 02:27:13;;;;;;;39.00;23.83;;;10.70;99.90;;;;;;5110458;28;20438;-59
2022/05/06 02:33:12;;;;;;;33.97;21.83;;;10.70;99.90;;;;;;5103221;28;20173;-59
2022/05/06 02:35:09;;;;;;;38.17;21.10;;;10.60;99.90;;;;;;5103900;28;20536;-59
2022/05/06 02:37:35;;;;;;;34.47;22.40;;;10.60;99.90;;;;;;5111153;28;20501;-58
2022/05/06 02:40:01;;;;;;;36.33;22.27;;;10.60;99.90;;;;;;5111416;28;20176;-59
2022/05/06 02:42:27;;;;;;;39.13;22.50;;;10.60;99.90;;;;;;5109565;28;20192;-59
2022/05/06 02:44:52;;;;;;;32.97;20.87;;;10.60;99.90;;;;;;5091294;28;20463;-59
2022/05/06 02:47:18;;;;;;;37.27;21.77;;;10.60;99.90;;;;;;5103880;28;20257;-59
2022/05/06 02:49:44;;;;;;;38.50;24.13;;;10.60;99.90;;;;;;5111585;28;20534;-59
2022/05/06 02:52:10;;;;;;;39.30;24.10;;;10.60;99.90;;;;;;5109538;28;20285;-59
2022/05/06 02:54:35;;;;;;;38.23;24.10;;;10.60;99.90;;;;;;5110046;28;20204;-59
2022/05/06 02:57:02;;;;;;;40.87;23.00;;;10.60;99.90;;;;;;5111260;28;20181;-59
2022/05/06 02:59:31;;;;;;;44.00;23.43;;;10.60;99.90;;;;;;5097030;28;20196;-59
2022/05/06 03:01:57;;;;;;;41.43;22.60;;;10.60;99.90;;;;;;5092747;28;20420;-59
2022/05/06 03:04:22;;;;;;;40.93;22.83;;;10.60;99.90;;;;;;5101050;28;20463;-58
2022/05/06 03:06:48;;;;;;;38.47;21.20;;;10.60;99.90;;;;;;5109407;28;20496;-59
2022/05/06 03:09:14;;;;;;;40.87;22.17;;;10.60;99.90;;;;;;5096120;28;20630;-58
2022/05/06 03:11:39;;;;;;;35.07;21.00;;;10.60;99.90;;;;;;5090334;28;20235;-60
2022/05/06 03:14:05;;;;;;;39.07;22.10;;;10.50;99.90;;;;;;5099719;28;20184;-59
2022/05/06 03:16:31;;;;;;;40.83;23.00;;;10.50;99.90;;;;;;5110583;28;20318;-59
2022/05/06 03:19:00;;;;;;;29.50;20.57;;;10.50;99.90;;;;;;5108852;28;20197;-59
2022/05/06 03:21:28;;;;;;;39.83;20.70;;;10.50;99.90;;;;;;5104918;28;20492;-58
2022/05/06 03:23:55;;;;;;;39.30;22.13;;;10.50;99.90;;;;;;5104663;28;20942;-59
2022/05/06 03:26:20;;;;;;;38.17;23.60;;;10.50;99.90;;;;;;5080191;28;20524;-59
2022/05/06 03:28:46;;;;;;;36.10;22.37;;;10.50;99.90;;;;;;5090634;28;20849;-58
2022/05/06 03:31:13;;;;;;;37.83;22.20;;;10.50;99.90;;;;;;5090024;28;20178;-58
2022/05/06 03:33:42;;;;;;;36.40;22.10;;;10.50;99.90;;;;;;5089768;28;20177;-58
2022/05/06 03:36:11;;;;;;;48.60;29.40;;;10.50;99.90;;;;;;5090821;28;20457;-59
2022/05/06 03:38:37;;;;;;;39.10;22.00;;;10.50;99.90;;;;;;5103775;28;20418;-59
2022/05/06 03:41:03;;;;;;;39.73;22.23;;;10.50;99.90;;;;;;5109498;28;20419;-58
2022/05/06 03:43:28;;;;;;;39.60;22.03;;;10.50;99.90;;;;;;5107605;28;20197;-59
2022/05/06 03:45:54;;;;;;;45.90;22.10;;;10.50;99.90;;;;;;5098057;28;20239;-58
2022/05/06 03:48:24;;;;;;;37.60;22.37;;;10.50;99.90;;;;;;5091295;28;20182;-59
2022/05/06 03:53:35;;;;;;;33.33;23.30;;;10.40;99.90;;;;;;5097792;28;20531;-59
2022/05/06 03:56:01;;;;;;;37.60;22.47;;;10.40;99.90;;;;;;5109620;28;20419;-59
2022/05/06 03:58:27;;;;;;;34.33;20.80;;;10.40;99.90;;;;;;5108925;28;20407;-58
2022/05/06 04:00:52;;;;;;;41.60;22.90;;;10.40;99.90;;;;;;5071772;28;20427;-59
2022/05/06 04:03:19;;;;;;;35.20;21.80;;;10.40;99.90;;;;;;5097406;28;20197;-58
2022/05/06 04:05:44;;;;;;;35.13;20.97;;;10.40;99.90;;;;;;5099228;28;20257;-59
2022/05/06 04:08:10;;;;;;;34.70;21.20;;;10.40;99.90;;;;;;5103217;28;20445;-55
2022/05/06 04:10:36;;;;;;;36.17;21.83;;;10.40;99.90;;;;;;5095635;28;20181;-59
2022/05/06 04:13:02;;;;;;;37.20;21.50;;;10.40;99.90;;;;;;5105740;28;20197;-59
2022/05/06 04:15:28;;;;;;;38.27;22.80;;;10.40;99.90;;;;;;5096094;28;20254;-57
2022/05/06 04:17:54;;;;;;;36.10;21.40;;;10.40;99.90;;;;;;5103208;28;20568;-56
2022/05/06 04:25:49;;;;;;;39.90;21.83;;;10.40;99.90;;;;;;5104652;28;20469;-59
2022/05/06 04:28:15;;;;;;;44.73;20.90;;;10.40;99.90;;;;;;5094764;28;20444;-59
2022/05/06 04:30:41;;;;;;;34.70;21.63;;;10.40;99.90;;;;;;5101100;28;20170;-59
2022/05/06 04:33:07;;;;;;;35.73;21.23;;;10.40;99.90;;;;;;5103466;28;20503;-58
2022/05/06 04:35:33;;;;;;;45.53;22.93;;;10.50;99.90;;;;;;5101860;28;20301;-59
2022/05/06 04:37:59;;;;;;;34.87;21.43;;;10.50;99.90;;;;;;5101387;28;20189;-59
2022/05/06 04:40:24;;;;;;;36.23;20.93;;;10.50;99.90;;;;;;5095092;28;20893;-59
2022/05/06 04:42:50;;;;;;;37.67;22.13;;;10.50;99.90;;;;;;5095414;28;20222;-58
2022/05/06 04:45:16;;;;;;;40.60;21.47;;;10.50;99.90;;;;;;5098396;28;20197;-59
2022/05/06 04:47:42;;;;;;;35.87;22.13;;;10.50;99.90;;;;;;5103689;28;20176;-60
2022/05/06 04:50:08;;;;;;;37.97;22.50;;;10.50;99.90;;;;;;5107784;28;20227;-57
2022/05/06 04:52:34;;;;;;;36.80;22.73;;;10.50;99.90;;;;;;5101899;28;20533;-59
2022/05/06 04:54:59;;;;;;;38.27;22.60;;;10.50;99.90;;;;;;5105352;28;20438;-55
2022/05/06 04:57:25;;;;;;;41.93;23.17;;;10.50;99.90;;;;;;5103451;28;20651;-61
2022/05/06 04:59:51;;;;;;;36.60;20.83;;;10.50;99.90;;;;;;5101567;28;20178;-59
2022/05/06 05:02:17;;;;;;;36.70;23.10;;;10.50;99.90;;;;;;5104880;28;20194;-59
2022/05/06 05:04:43;;;;;;;39.60;22.40;;;10.50;99.90;;;;;;5104867;28;20236;-60
2022/05/06 05:07:10;;;;;;;43.23;24.60;;;10.50;99.90;;;;;;5085616;28;20446;-60
2022/05/06 05:09:35;;;;;;;37.80;21.57;;;10.50;99.90;;;;;;5103179;28;20431;-60
2022/05/06 05:12:01;;;;;;;43.40;23.17;;;10.50;99.90;;;;;;5105503;28;20790;-61
2022/05/06 05:14:27;;;;;;;45.30;25.70;;;10.50;99.90;;;;;;5105507;28;20173;-61
2022/05/06 05:16:52;;;;;;;38.70;23.17;;;10.50;99.90;;;;;;5100110;28;20204;-59
2022/05/06 05:19:18;;;;;;;43.77;24.17;;;10.60;99.90;;;;;;5105335;28;20181;-59
2022/05/06 05:21:44;;;;;;;39.37;22.57;;;10.60;99.90;;;;;;5108116;28;20216;-59
2022/05/06 05:24:09;;;;;;;46.30;24.20;;;10.60;99.90;;;;;;5105702;28;20197;-57
2022/05/06 05:26:35;;;;;;;38.90;24.77;;;10.60;99.90;;;;;;5104938;28;20178;-57
2022/05/06 05:29:01;;;;;;;44.50;24.33;;;10.70;99.90;;;;;;5106978;28;20294;-58
2022/05/06 05:31:27;;;;;;;41.90;24.60;;;10.70;99.90;;;;;;5100181;28;20646;-59
2022/05/06 05:33:52;;;;;;;42.77;24.87;;;10.70;99.90;;;;;;5102829;28;20438;-59
2022/05/06 05:36:19;;;;;;;39.93;24.20;;;10.70;99.90;;;;;;5104461;28;20173;-56
2022/05/06 05:38:44;;;;;;;40.00;24.40;;;10.70;99.90;;;;;;5097129;28;20198;-59
2022/05/06 05:41:11;;;;;;;44.70;24.93;;;10.70;99.90;;;;;;5107448;28;20427;-59
2022/05/06 05:49:05;;;;;;;42.13;25.20;;;10.80;99.90;;;;;;5095039;28;21121;-59
2022/05/06 05:51:33;;;;;;;43.50;25.77;;;10.80;99.90;;;;;;5107330;28;20502;-60
2022/05/06 05:53:59;;;;;;;45.50;25.80;;;10.80;99.90;;;;;;5111017;28;20180;-59
2022/05/06 05:56:25;;;;;;;41.17;24.80;;;10.80;99.90;;;;;;5107832;28;20427;-59
2022/05/06 05:58:51;;;;;;;48.53;27.80;;;10.90;99.90;;;;;;5112438;28;20196;-59
2022/05/06 06:01:17;;;;;;;47.30;27.80;;;10.90;99.90;;;;;;5103327;28;20177;-59
2022/05/06 06:03:43;;;;;;;51.10;26.50;;;10.90;99.90;;;;;;5091566;28;20434;-59
2022/05/06 06:06:09;;;;;;;47.83;27.70;;;10.90;99.90;;;;;;5108257;28;20458;-59
2022/05/06 06:08:35;;;;;;;54.73;29.23;;;10.90;99.90;;;;;;5101315;28;20181;-59
2022/05/06 06:11:04;;;;;;;48.70;29.57;;;11.00;99.90;;;;;;5100704;28;21095;-60
2022/05/06 06:13:33;;;;;;;49.00;28.57;;;11.00;99.90;;;;;;5100665;28;20455;-59
2022/05/06 06:15:58;;;;;;;57.00;28.87;;;11.00;99.90;;;;;;5104168;28;20478;-59
2022/05/06 06:18:26;;;;;;;46.93;26.60;;;11.00;99.90;;;;;;5106666;28;21091;-60
2022/05/06 06:20:56;;;;;;;46.60;27.37;;;11.00;99.90;;;;;;5086758;28;20203;-58
2022/05/06 06:23:23;;;;;;;48.67;27.10;;;11.00;99.90;;;;;;5081388;28;21013;-59
2022/05/06 06:25:49;;;;;;;48.53;28.07;;;11.00;99.90;;;;;;5098276;28;20471;-59
2022/05/06 06:28:15;;;;;;;44.80;25.50;;;11.10;99.90;;;;;;5097744;28;20423;-59
2022/05/06 06:30:41;;;;;;;42.50;27.43;;;11.10;99.90;;;;;;5105660;28;20223;-60
2022/05/06 06:33:10;;;;;;;45.97;27.57;;;11.10;99.90;;;;;;5102739;28;21003;-60
2022/05/06 06:35:35;;;;;;;41.80;25.50;;;11.10;99.90;;;;;;5102780;28;20166;-60
2022/05/06 06:38:01;;;;;;;50.43;25.77;;;11.20;99.90;;;;;;5108858;28;20483;-59
2022/05/06 06:40:27;;;;;;;43.30;26.20;;;11.20;99.90;;;;;;5102209;28;20177;-60
2022/05/06 06:42:53;;;;;;;45.20;25.93;;;11.20;99.90;;;;;;5109289;28;20216;-60
2022/05/06 06:45:19;;;;;;;49.03;27.30;;;11.20;99.90;;;;;;5090554;28;20812;-59
2022/05/06 06:47:44;;;;;;;43.20;25.57;;;11.20;99.90;;;;;;5096543;28;20252;-59
2022/05/06 06:50:10;;;;;;;46.10;25.70;;;11.20;99.90;;;;;;5105421;28;20543;-60
2022/05/06 06:52:36;;;;;;;43.97;25.00;;;11.20;99.90;;;;;;5092143;28;20201;-59
2022/05/06 06:55:02;;;;;;;46.50;27.00;;;11.20;99.90;;;;;;5110952;28;20230;-59
2022/05/06 06:57:30;;;;;;;51.53;26.80;;;11.20;99.90;;;;;;5104609;28;21132;-59
2022/05/06 06:59:56;;;;;;;39.57;23.60;;;11.30;99.90;;;;;;5107322;28;20518;-59
2022/05/06 07:02:22;;;;;;;42.13;24.83;;;11.30;99.90;;;;;;5113760;28;21028;-60
2022/05/06 07:04:47;;;;;;;44.80;25.50;;;11.30;99.90;;;;;;5115770;28;20234;-59
2022/05/06 07:12:42;;;;;;;36.03;20.70;;;11.30;99.90;;;;;;5105135;28;20546;-59
2022/05/06 07:15:08;;;;;;;33.10;20.87;;;11.30;99.90;;;;;;5105659;28;20458;-58
2022/05/06 07:17:34;;;;;;;36.70;23.50;;;11.30;99.90;;;;;;5100702;28;20922;-60
2022/05/06 07:20:00;;;;;;;36.67;20.80;;;11.30;99.90;;;;;;5099597;28;20416;-59
2022/05/06 07:22:26;;;;;;;38.50;22.07;;;11.40;99.90;;;;;;5103513;28;20596;-59
2022/05/06 07:24:51;;;;;;;34.00;21.80;;;11.40;99.90;;;;;;5100834;28;20954;-59
2022/05/06 07:27:18;;;;;;;33.70;21.70;;;11.40;99.90;;;;;;5105867;28;20169;-60
2022/05/06 07:29:44;;;;;;;33.87;22.40;;;11.50;99.90;;;;;;5105216;28;20173;-59
2022/05/06 07:32:10;;;;;;;30.90;20.30;;;11.50;99.90;;;;;;5103228;28;20454;-59
2022/05/06 07:34:36;;;;;;;37.97;21.87;;;11.60;99.90;;;;;;5102993;28;20518;-55
2022/05/06 07:37:02;;;;;;;31.23;20.10;;;11.50;99.90;;;;;;5099721;28;20519;-59
2022/05/06 07:39:28;;;;;;;35.57;22.20;;;11.50;99.90;;;;;;5100393;28;20422;-59
2022/05/06 07:41:53;;;;;;;34.90;22.90;;;11.50;99.90;;;;;;5100743;28;20454;-60
2022/05/06 07:44:19;;;;;;;38.23;22.10;;;11.40;99.90;;;;;;5099385;28;20213;-56
2022/05/06 07:46:45;;;;;;;39.20;22.93;;;11.40;99.90;;;;;;5099215;28;20259;-60
2022/05/06 07:49:10;;;;;;;38.30;21.97;;;11.40;99.90;;;;;;5106580;28;21137;-58
2022/05/06 07:51:36;;;;;;;42.50;24.10;;;11.40;99.90;;;;;;5103351;28;20197;-55
2022/05/06 07:54:03;;;;;;;40.70;23.00;;;11.40;99.90;;;;;;5104027;28;20283;-55
2022/05/06 07:56:29;;;;;;;35.37;23.53;;;11.40;99.90;;;;;;5102410;28;20216;-57
2022/05/06 07:58:56;;;;;;;36.30;24.07;;;11.40;99.90;;;;;;5103580;28;20430;-57
2022/05/06 08:06:52;;;;;;;38.17;22.83;;;11.50;99.90;;;;;;5098970;28;20445;-56
2022/05/06 08:09:18;;;;;;;41.73;24.60;;;11.50;99.90;;;;;;5101306;28;20419;-56
2022/05/06 08:11:45;;;;;;;41.20;23.50;;;11.50;99.90;;;;;;5099770;28;20545;-57
2022/05/06 08:14:11;;;;;;;41.60;23.07;;;11.50;99.90;;;;;;5099379;28;20946;-58
2022/05/06 08:16:36;;;;;;;48.77;26.50;;;11.50;99.90;;;;;;5101977;28;20525;-61
2022/05/06 08:19:02;;;;;;;41.97;26.20;;;11.50;99.90;;;;;;5102913;28;20299;-60
2022/05/06 08:21:28;;;;;;;44.40;24.40;;;11.40;99.90;;;;;;5108827;28;20184;-60
2022/05/06 08:23:53;;;;;;;40.80;24.80;;;11.40;99.90;;;;;;5106693;28;20185;-60
2022/05/06 08:26:19;;;;;;;37.53;24.40;;;11.40;99.90;;;;;;5102608;28;20256;-59
2022/05/06 08:28:44;;;;;;;41.97;26.23;;;11.40;99.90;;;;;;5101437;28;20181;-60
2022/05/06 08:31:10;;;;;;;39.53;23.97;;;11.40;99.90;;;;;;5102764;28;20177;-60
2022/05/06 08:33:36;;;;;;;37.87;25.40;;;11.40;99.90;;;;;;5098012;28;20224;-59
2022/05/06 08:36:04;;;;;;;41.43;25.30;;;11.40;99.90;;;;;;5096614;28;20199;-60
2022/05/06 08:38:30;;;;;;;44.53;25.10;;;11.40;99.90;;;;;;5095383;28;20260;-59
2022/05/06 08:40:56;;;;;;;36.73;24.53;;;11.50;99.90;;;;;;5089774;28;20439;-58
2022/05/06 08:43:22;;;;;;;44.17;25.50;;;11.50;99.90;;;;;;5100318;28;20231;-59
2022/05/06 08:51:26;;;;;;;36.37;23.83;;;11.60;99.90;;;;;;5105582;28;20450;-60
2022/05/06 08:53:54;;;;;;;43.53;22.97;;;11.60;99.90;;;;;;5106380;28;20426;-59
2022/05/06 08:56:20;;;;;;;39.20;22.33;;;11.60;99.90;;;;;;5090658;28;20429;-60
2022/05/06 08:58:45;;;;;;;39.67;23.90;;;11.60;99.90;;;;;;5105245;28;20430;-60
2022/05/06 09:01:13;;;;;;;37.90;23.70;;;11.60;99.90;;;;;;5100009;28;20180;-60
2022/05/06 09:03:40;;;;;;;36.10;23.87;;;11.70;99.90;;;;;;5101496;28;20543;-60
2022/05/06 09:06:22;;;;;;;36.63;23.07;;;11.70;99.90;;;;;;5097386;28;20985;-60
2022/05/06 09:08:50;;;;;;;34.63;23.97;;;11.70;99.90;;;;;;5102542;28;20438;-60
2022/05/06 09:12:40;;;;;;;34.70;22.87;;;11.70;99.90;;;;;;5104535;28;20488;-54
2022/05/06 09:14:06;;;;;;;41.47;24.83;;;11.80;99.90;;;;;;5099881;28;20427;-59
2022/05/06 09:16:41;;;;;;;34.10;24.20;;;11.90;99.90;;;;;;5102173;28;20430;-60
2022/05/06 09:19:14;;;;;;;37.50;23.60;;;11.90;99.90;;;;;;5104807;28;20419;-59
2022/05/06 09:21:41;;;;;;;38.43;24.57;;;11.90;99.90;;;;;;5103487;28;20474;-60
2022/05/06 09:24:20;;;;;;;32.50;23.40;;;11.90;99.90;;;;;;5103882;28;20426;-60
2022/05/06 09:27:02;;;;;;;39.80;26.10;;;11.90;99.90;;;;;;5100924;28;20479;-60
2022/05/06 09:29:48;;;;;;;37.00;23.73;;;12.00;99.90;;;;;;5100634;28;20999;-60
2022/05/06 09:32:27;;;;;;;35.50;21.57;;;12.10;99.90;;;;;;5104967;28;20451;-60
2022/05/06 09:34:56;;;;;;;39.53;22.80;;;12.10;99.90;;;;;;5105649;28;20446;-59
2022/05/06 09:37:31;;;;;;;36.00;23.10;;;12.10;99.90;;;;;;5087182;28;20872;-60
2022/05/06 09:40:07;;;;;;;40.37;23.90;;;12.20;99.90;;;;;;5106962;28;20517;-60
2022/05/06 09:42:38;;;;;;;33.17;22.87;;;12.20;99.90;;;;;;5100597;28;21120;-59
2022/05/06 09:45:04;;;;;;;36.90;24.97;;;12.30;99.90;;;;;;5100768;28;20462;-60
2022/05/06 09:47:33;;;;;;;37.60;24.77;;;12.30;99.90;;;;;;5102926;28;21128;-59
2022/05/06 09:49:59;;;;;;;34.27;24.90;;;12.40;99.90;;;;;;5086739;28;20481;-59
2022/05/06 09:52:25;;;;;;;36.67;25.10;;;12.40;99.90;;;;;;5107036;28;20494;-60
2022/05/06 09:54:53;;;;;;;39.73;24.93;;;12.40;99.90;;;;;;5102178;27;21238;-59
2022/05/06 09:57:19;;;;;;;39.03;25.30;;;12.50;99.90;;;;;;5101835;28;20631;-60
2022/05/06 09:59:45;;;;;;;46.30;25.20;;;12.50;99.90;;;;;;5102232;28;20434;-59
2022/05/06 10:02:12;;;;;;;29.17;22.43;;;12.60;99.90;;;;;;5105123;28;20613;-59
2022/05/06 10:04:39;;;;;;;33.93;23.33;;;12.60;99.90;;;;;;5102163;28;20459;-59
2022/05/06 10:07:09;;;;;;;32.30;22.47;;;12.70;99.90;;;;;;5109118;28;20434;-58
2022/05/06 10:09:53;;;;;;;37.23;23.53;;;12.70;99.90;;;;;;5105678;28;20987;-58
2022/05/06 10:12:21;;;;;;;39.40;22.97;;;12.80;99.90;;;;;;5090386;28;20442;-59
2022/05/06 10:14:47;;;;;;;34.10;22.07;;;12.80;99.90;;;;;;5108015;28;20415;-58
2022/05/06 10:17:51;;;;;;;36.77;22.50;;;12.80;99.90;;;;;;5102412;28;21012;-58
2022/05/06 10:20:43;;;;;;;33.53;22.47;;;12.80;99.90;;;;;;5103138;28;20430;-58
2022/05/06 10:23:18;;;;;;;31.53;21.10;;;12.80;99.90;;;;;;5105756;28;20522;-58
2022/05/06 10:25:44;;;;;;;36.90;20.87;;;12.80;99.90;;;;;;5108183;28;20457;-58
2022/05/06 10:34:09;;;;;;;36.00;22.20;;;12.90;99.90;;;;;;5099268;28;20435;-59
2022/05/06 10:36:48;;;;;;;29.70;21.33;;;12.90;99.90;;;;;;5101963;28;20787;-59
2022/05/06 10:39:22;;;;;;;30.47;19.97;;;13.00;99.90;;;;;;5102469;28;20422;-59
2022/05/06 10:42:10;;;;;;;35.37;21.83;;;13.00;99.90;;;;;;5082995;28;20451;-59
2022/05/06 10:44:49;;;;;;;32.87;21.53;;;13.10;99.90;;;;;;5110155;28;20466;-59
2022/05/06 10:47:20;;;;;;;34.83;20.00;;;13.10;99.90;;;;;;5106945;28;22384;-59
2022/05/06 10:49:50;;;;;;;29.77;18.70;;;13.10;99.90;;;;;;5103631;28;20423;-59
2022/05/06 10:52:18;;;;;;;33.80;19.40;;;13.10;99.90;;;;;;5096965;28;21014;-59
2022/05/06 10:54:47;;;;;;;24.30;19.27;;;13.20;99.90;;;;;;5109073;28;20423;-59
2022/05/06 10:57:17;;;;;;;28.83;19.47;;;13.20;99.90;;;;;;5093357;28;20521;-59
2022/05/06 10:59:51;;;;;;;31.40;21.43;;;13.20;99.90;;;;;;5093939;28;20422;-59
2022/05/06 11:02:20;;;;;;;22.47;18.50;;;13.20;99.90;;;;;;5094089;28;20457;-59
2022/05/06 11:04:53;;;;;;;25.63;18.60;;;13.20;99.90;;;;;;5107887;28;20459;-58
2022/05/06 11:07:19;;;;;;;36.43;19.43;;;13.20;99.90;;;;;;5109686;28;20443;-59
2022/05/06 11:09:46;;;;;;;27.97;19.07;;;13.20;99.90;;;;;;5101259;28;20436;-59
2022/05/06 11:12:34;;;;;;;35.87;19.30;;;13.20;99.90;;;;;;5105780;28;20193;-59
2022/05/06 11:15:07;;;;;;;29.00;18.27;;;13.20;99.90;;;;;;5106326;28;20427;-58
2022/05/06 11:17:33;;;;;;;25.83;17.90;;;13.30;99.90;;;;;;5110033;28;20411;-60
2022/05/06 11:20:26;;;;;;;21.90;17.43;;;13.40;99.90;;;;;;5107113;28;20532;-59
2022/05/06 11:23:04;;;;;;;24.13;17.87;;;13.50;99.90;;;;;;5087320;28;20459;-58
2022/05/06 11:25:58;;;;;;;39.70;18.23;;;13.60;99.90;;;;;;5106253;28;20469;-59
2022/05/06 11:28:24;;;;;;;27.87;18.30;;;13.60;99.90;;;;;;5098985;28;20810;-59
2022/05/06 11:30:51;;;;;;;27.90;17.70;;;13.70;99.90;;;;;;5100981;28;20520;-59
2022/05/06 11:33:28;;;;;;;21.93;17.03;;;13.80;99.90;;;;;;5099756;28;20566;-59
2022/05/06 11:36:08;;;;;;;38.83;19.37;;;13.80;99.90;;;;;;5072394;28;20518;-59
2022/05/06 11:38:38;;;;;;;27.40;17.93;;;14.00;99.90;;;;;;5094540;28;20431;-59
2022/05/06 11:41:16;;;;;;;25.33;16.40;;;14.10;99.90;;;;;;5110270;28;20496;-59
2022/05/06 11:43:44;;;;;;;21.63;15.57;;;14.30;99.90;;;;;;5095396;28;20518;-59
2022/05/06 11:49:01;;;;;;;18.87;14.70;;;14.60;99.90;;;;;;5114968;28;20447;-60
2022/05/06 11:51:30;;;;;;;18.30;13.90;;;14.70;99.90;;;;;;5127778;28;20499;-61
2022/05/06 11:53:57;;;;;;;23.00;14.50;;;14.70;99.90;;;;;;5131411;28;20439;-59
2022/05/06 11:56:28;;;;;;;23.33;13.60;;;14.60;99.90;;;;;;5106427;28;20472;-59
2022/05/06 11:58:58;;;;;;;19.17;14.37;;;14.60;99.90;;;;;;5107557;28;20410;-59
2022/05/06 12:01:34;;;;;;;17.50;14.70;;;14.70;99.90;;;;;;5107810;28;20419;-58
2022/05/06 12:04:01;;;;;;;18.93;14.50;;;14.70;99.90;;;;;;5098988;28;20427;-59
2022/05/06 12:06:27;;;;;;;23.93;14.57;;;14.70;99.90;;;;;;5098008;28;21014;-58
2022/05/06 12:09:09;;;;;;;23.07;14.03;;;14.80;99.90;;;;;;5104877;28;20513;-59
2022/05/06 12:11:34;;;;;;;26.87;12.97;;;14.80;99.90;;;;;;5136636;22;20569;-58
2022/05/06 12:14:17;;;;;;;18.63;13.30;;;14.90;99.90;;;;;;5101360;28;20775;-57
2022/05/06 12:17:00;;;;;;;19.07;14.07;;;14.90;99.90;;;;;;5104830;28;20183;-59
2022/05/06 12:19:39;;;;;;;18.70;13.70;;;14.80;99.90;;;;;;5107624;28;20485;-57
2022/05/06 12:22:30;;;;;;;19.63;13.23;;;14.80;99.90;;;;;;5083673;28;20921;-58
2022/05/06 12:24:58;;;;;;;18.10;14.63;;;14.70;99.90;;;;;;5084988;28;20529;-58
2022/05/06 12:27:34;;;;;;;19.73;12.93;;;14.70;99.90;;;;;;5085378;28;20482;-58
2022/05/06 12:30:01;;;;;;;22.07;12.53;;;14.90;99.90;;;;;;5079919;28;20439;-58
2022/05/06 12:32:30;;;;;;;15.20;12.20;;;15.00;99.90;;;;;;5083949;28;20439;-59
2022/05/06 12:35:10;;;;;;;22.47;12.40;;;15.10;99.90;;;;;;5076576;28;20443;-58
2022/05/06 12:37:58;;;;;;;13.13;11.07;;;15.20;99.90;;;;;;5082172;28;20458;-57
2022/05/06 12:40:31;;;;;;;18.80;11.90;;;15.30;99.90;;;;;;5085337;28;21271;-58
2022/05/06 12:43:07;;;;;;;15.47;11.67;;;15.30;99.90;;;;;;5084514;28;21106;-57
2022/05/06 12:45:34;;;;;;;17.40;13.00;;;15.20;99.90;;;;;;5079627;28;20463;-57
2022/05/06 12:50:44;;;;;;;17.30;12.13;;;15.00;99.90;;;;;;5079331;28;21019;-56
2022/05/06 12:53:09;;;;;;;18.30;12.40;;;14.90;99.90;;;;;;5065315;28;20423;-56
2022/05/06 12:55:35;;;;;;;17.40;13.57;;;14.90;99.90;;;;;;5079089;28;20177;-57
2022/05/06 12:58:01;;;;;;;17.20;12.60;;;14.80;99.90;;;;;;5083021;28;20249;-58
2022/05/06 13:00:26;;;;;;;21.70;13.73;;;14.70;99.90;;;;;;5084181;28;20206;-56
2022/05/06 13:02:52;;;;;;;15.83;13.07;;;14.70;99.90;;;;;;5083499;28;20662;-55
2022/05/06 13:05:18;;;;;;;18.57;12.80;;;14.70;99.90;;;;;;5085554;28;20263;-56
2022/05/06 13:07:44;;;;;;;16.13;12.10;;;14.60;99.90;;;;;;5087703;28;20192;-56
2022/05/06 13:10:10;;;;;;;15.23;12.70;;;14.70;99.90;;;;;;5087149;28;20202;-56
2022/05/06 13:12:36;;;;;;;17.57;11.97;;;14.80;99.90;;;;;;5090203;28;20423;-55
2022/05/06 13:15:02;;;;;;;17.23;13.23;;;14.80;99.90;;;;;;5089635;28;20182;-55
2022/05/06 13:17:27;;;;;;;16.27;12.67;;;14.90;99.90;;;;;;5068770;28;20174;-55
2022/05/06 13:19:53;;;;;;;17.57;14.13;;;14.90;99.90;;;;;;5086704;28;20669;-56